sensor_id;sensor_type;location;lat;lon;timestamp;P1;durP1;ratioP1;P2;durP2;ratioP2
76848;SDS011;65814;51.134;16.980;2023-07-24T00:02:09;6.50;;;3.80;;
76848;SDS011;65814;51.134;16.980;2023-07-24T00:04:37;5.20;;;3.20;;
76848;SDS011;65814;51.134;16.980;2023-07-24T00:07:04;6.30;;;3.70;;
76848;SDS011;65814;51.134;16.980;2023-07-24T00:09:33;5.20;;;3.10;;
76848;SDS011;65814;51.134;16.980;2023-07-24T00:12:01;5.80;;;3.80;;
76848;SDS011;65814;51.134;16.980;2023-07-24T00:14:28;5.50;;;3.30;;
76848;SDS011;65814;51.134;16.980;2023-07-24T00:16:57;6.60;;;3.20;;
76848;SDS011;65814;51.134;16.980;2023-07-24T00:19:25;7.20;;;3.50;;
76848;SDS011;65814;51.134;16.980;2023-07-24T00:21:52;6.10;;;3.80;;
76848;SDS011;65814;51.134;16.980;2023-07-24T00:24:20;8.50;;;4.10;;
76848;SDS011;65814;51.134;16.980;2023-07-24T00:26:48;6.50;;;3.50;;
76848;SDS011;65814;51.134;16.980;2023-07-24T00:29:16;6.20;;;3.00;;
76848;SDS011;65814;51.134;16.980;2023-07-24T00:31:44;6.70;;;3.90;;
76848;SDS011;65814;51.134;16.980;2023-07-24T00:34:12;7.20;;;3.70;;
76848;SDS011;65814;51.134;16.980;2023-07-24T00:36:40;5.50;;;3.30;;
76848;SDS011;65814;51.134;16.980;2023-07-24T00:39:08;5.00;;;3.40;;
76848;SDS011;65814;51.134;16.980;2023-07-24T00:41:37;8.70;;;4.50;;
76848;SDS011;65814;51.134;16.980;2023-07-24T00:44:05;5.60;;;4.00;;
76848;SDS011;65814;51.134;16.980;2023-07-24T00:46:33;7.50;;;4.20;;
76848;SDS011;65814;51.134;16.980;2023-07-24T00:49:02;8.60;;;3.90;;
76848;SDS011;65814;51.134;16.980;2023-07-24T00:51:34;6.20;;;3.30;;
76848;SDS011;65814;51.134;16.980;2023-07-24T00:54:02;5.90;;;3.70;;
76848;SDS011;65814;51.134;16.980;2023-07-24T00:56:31;6.50;;;4.00;;
76848;SDS011;65814;51.134;16.980;2023-07-24T00:59:00;6.60;;;4.10;;
76848;SDS011;65814;51.134;16.980;2023-07-24T01:01:28;5.90;;;3.50;;
76848;SDS011;65814;51.134;16.980;2023-07-24T01:03:57;6.90;;;3.30;;
76848;SDS011;65814;51.134;16.980;2023-07-24T01:06:25;8.10;;;4.80;;
76848;SDS011;65814;51.134;16.980;2023-07-24T01:08:53;5.60;;;3.20;;
76848;SDS011;65814;51.134;16.980;2023-07-24T01:11:24;7.10;;;3.80;;
76848;SDS011;65814;51.134;16.980;2023-07-24T01:13:59;8.70;;;3.80;;
76848;SDS011;65814;51.134;16.980;2023-07-24T01:16:36;6.10;;;3.30;;
76848;SDS011;65814;51.134;16.980;2023-07-24T01:22:01;5.10;;;3.20;;
76848;SDS011;65814;51.134;16.980;2023-07-24T01:24:52;8.00;;;4.00;;
76848;SDS011;65814;51.134;16.980;2023-07-24T01:27:30;5.80;;;3.90;;
76848;SDS011;65814;51.134;16.980;2023-07-24T01:29:58;6.40;;;3.80;;
76848;SDS011;65814;51.134;16.980;2023-07-24T01:32:25;6.40;;;3.70;;
76848;SDS011;65814;51.134;16.980;2023-07-24T01:34:54;7.00;;;3.40;;
76848;SDS011;65814;51.134;16.980;2023-07-24T01:37:22;8.40;;;4.20;;
76848;SDS011;65814;51.134;16.980;2023-07-24T01:39:50;8.00;;;3.60;;
76848;SDS011;65814;51.134;16.980;2023-07-24T01:42:17;9.40;;;3.90;;
76848;SDS011;65814;51.134;16.980;2023-07-24T01:44:50;10.80;;;4.90;;
76848;SDS011;65814;51.134;16.980;2023-07-24T01:47:19;6.10;;;3.50;;
76848;SDS011;65814;51.134;16.980;2023-07-24T01:49:47;6.50;;;4.00;;
76848;SDS011;65814;51.134;16.980;2023-07-24T01:52:16;10.40;;;3.50;;
76848;SDS011;65814;51.134;16.980;2023-07-24T01:54:44;7.30;;;4.20;;
76848;SDS011;65814;51.134;16.980;2023-07-24T01:57:12;5.40;;;3.80;;
76848;SDS011;65814;51.134;16.980;2023-07-24T01:59:43;6.40;;;3.30;;
76848;SDS011;65814;51.134;16.980;2023-07-24T02:02:12;10.20;;;4.30;;
76848;SDS011;65814;51.134;16.980;2023-07-24T02:04:40;6.00;;;3.20;;
76848;SDS011;65814;51.134;16.980;2023-07-24T02:07:08;6.20;;;4.10;;
76848;SDS011;65814;51.134;16.980;2023-07-24T02:09:36;7.50;;;4.20;;
76848;SDS011;65814;51.134;16.980;2023-07-24T02:12:04;5.90;;;3.20;;
76848;SDS011;65814;51.134;16.980;2023-07-24T02:14:33;7.00;;;3.20;;
76848;SDS011;65814;51.134;16.980;2023-07-24T02:17:01;5.20;;;3.20;;
76848;SDS011;65814;51.134;16.980;2023-07-24T02:19:28;12.00;;;4.30;;
76848;SDS011;65814;51.134;16.980;2023-07-24T02:21:56;6.10;;;4.00;;
76848;SDS011;65814;51.134;16.980;2023-07-24T02:24:24;5.90;;;3.40;;
76848;SDS011;65814;51.134;16.980;2023-07-24T02:26:52;7.80;;;4.30;;
76848;SDS011;65814;51.134;16.980;2023-07-24T02:29:20;7.60;;;3.10;;
76848;SDS011;65814;51.134;16.980;2023-07-24T02:31:50;6.70;;;3.80;;
76848;SDS011;65814;51.134;16.980;2023-07-24T02:34:18;7.60;;;4.00;;
76848;SDS011;65814;51.134;16.980;2023-07-24T02:36:46;8.60;;;3.90;;
76848;SDS011;65814;51.134;16.980;2023-07-24T02:39:14;7.00;;;3.30;;
76848;SDS011;65814;51.134;16.980;2023-07-24T02:41:42;7.70;;;3.20;;
76848;SDS011;65814;51.134;16.980;2023-07-24T02:44:10;5.90;;;4.60;;
76848;SDS011;65814;51.134;16.980;2023-07-24T02:46:39;6.10;;;3.50;;
76848;SDS011;65814;51.134;16.980;2023-07-24T02:49:07;7.00;;;3.40;;
76848;SDS011;65814;51.134;16.980;2023-07-24T02:51:38;7.80;;;3.50;;
76848;SDS011;65814;51.134;16.980;2023-07-24T02:54:07;7.10;;;3.30;;
76848;SDS011;65814;51.134;16.980;2023-07-24T02:56:35;6.30;;;3.60;;
76848;SDS011;65814;51.134;16.980;2023-07-24T02:59:03;7.80;;;3.70;;
76848;SDS011;65814;51.134;16.980;2023-07-24T03:01:34;6.10;;;3.50;;
76848;SDS011;65814;51.134;16.980;2023-07-24T03:04:02;8.50;;;4.00;;
76848;SDS011;65814;51.134;16.980;2023-07-24T03:06:30;8.60;;;4.10;;
76848;SDS011;65814;51.134;16.980;2023-07-24T03:08:58;7.50;;;4.10;;
76848;SDS011;65814;51.134;16.980;2023-07-24T03:11:26;7.90;;;3.80;;
76848;SDS011;65814;51.134;16.980;2023-07-24T03:13:54;5.40;;;3.70;;
76848;SDS011;65814;51.134;16.980;2023-07-24T03:16:22;6.40;;;4.20;;
76848;SDS011;65814;51.134;16.980;2023-07-24T03:18:53;6.50;;;3.80;;
76848;SDS011;65814;51.134;16.980;2023-07-24T03:21:21;7.00;;;4.00;;
76848;SDS011;65814;51.134;16.980;2023-07-24T03:23:49;7.90;;;3.90;;
76848;SDS011;65814;51.134;16.980;2023-07-24T03:26:17;5.70;;;3.40;;
76848;SDS011;65814;51.134;16.980;2023-07-24T03:28:45;11.10;;;4.60;;
76848;SDS011;65814;51.134;16.980;2023-07-24T03:31:13;7.80;;;4.60;;
76848;SDS011;65814;51.134;16.980;2023-07-24T03:33:41;8.00;;;3.50;;
76848;SDS011;65814;51.134;16.980;2023-07-24T03:36:10;7.60;;;3.70;;
76848;SDS011;65814;51.134;16.980;2023-07-24T03:38:38;10.40;;;4.20;;
76848;SDS011;65814;51.134;16.980;2023-07-24T03:41:06;7.20;;;3.70;;
76848;SDS011;65814;51.134;16.980;2023-07-24T03:43:34;6.80;;;4.20;;
76848;SDS011;65814;51.134;16.980;2023-07-24T03:46:03;10.00;;;3.90;;
76848;SDS011;65814;51.134;16.980;2023-07-24T03:48:31;10.00;;;3.50;;
76848;SDS011;65814;51.134;16.980;2023-07-24T03:50:59;6.20;;;4.40;;
76848;SDS011;65814;51.134;16.980;2023-07-24T03:53:27;8.00;;;3.90;;
76848;SDS011;65814;51.134;16.980;2023-07-24T03:55:59;7.20;;;4.10;;
76848;SDS011;65814;51.134;16.980;2023-07-24T03:58:27;6.30;;;4.00;;
76848;SDS011;65814;51.134;16.980;2023-07-24T04:00:55;5.80;;;3.60;;
76848;SDS011;65814;51.134;16.980;2023-07-24T04:03:23;7.20;;;3.90;;
76848;SDS011;65814;51.134;16.980;2023-07-24T04:05:51;12.40;;;5.50;;
76848;SDS011;65814;51.134;16.980;2023-07-24T04:08:19;6.70;;;4.30;;
76848;SDS011;65814;51.134;16.980;2023-07-24T04:10:46;7.50;;;3.70;;
76848;SDS011;65814;51.134;16.980;2023-07-24T04:13:14;7.90;;;4.00;;
76848;SDS011;65814;51.134;16.980;2023-07-24T04:15:42;6.80;;;4.00;;
76848;SDS011;65814;51.134;16.980;2023-07-24T04:18:11;6.40;;;3.80;;
76848;SDS011;65814;51.134;16.980;2023-07-24T04:20:40;6.70;;;4.20;;
76848;SDS011;65814;51.134;16.980;2023-07-24T04:23:07;9.00;;;4.30;;
76848;SDS011;65814;51.134;16.980;2023-07-24T04:25:35;7.20;;;3.60;;
76848;SDS011;65814;51.134;16.980;2023-07-24T04:28:03;8.10;;;3.70;;
76848;SDS011;65814;51.134;16.980;2023-07-24T04:30:32;6.40;;;3.70;;
76848;SDS011;65814;51.134;16.980;2023-07-24T04:33:00;6.80;;;3.60;;
76848;SDS011;65814;51.134;16.980;2023-07-24T04:35:28;7.20;;;4.00;;
76848;SDS011;65814;51.134;16.980;2023-07-24T04:37:56;6.90;;;4.30;;
76848;SDS011;65814;51.134;16.980;2023-07-24T04:40:25;7.40;;;4.50;;
76848;SDS011;65814;51.134;16.980;2023-07-24T04:42:53;7.50;;;4.40;;
76848;SDS011;65814;51.134;16.980;2023-07-24T04:45:20;5.40;;;3.70;;
76848;SDS011;65814;51.134;16.980;2023-07-24T04:47:50;4.90;;;3.40;;
76848;SDS011;65814;51.134;16.980;2023-07-24T04:50:18;8.00;;;3.90;;
76848;SDS011;65814;51.134;16.980;2023-07-24T04:52:46;7.60;;;4.50;;
76848;SDS011;65814;51.134;16.980;2023-07-24T04:55:15;7.50;;;3.80;;
76848;SDS011;65814;51.134;16.980;2023-07-24T04:57:42;8.90;;;4.20;;
76848;SDS011;65814;51.134;16.980;2023-07-24T05:00:10;8.80;;;3.70;;
76848;SDS011;65814;51.134;16.980;2023-07-24T05:02:39;7.60;;;4.40;;
76848;SDS011;65814;51.134;16.980;2023-07-24T05:05:07;9.30;;;4.40;;
76848;SDS011;65814;51.134;16.980;2023-07-24T05:07:35;7.30;;;4.60;;
76848;SDS011;65814;51.134;16.980;2023-07-24T05:10:03;7.20;;;4.40;;
76848;SDS011;65814;51.134;16.980;2023-07-24T05:12:31;8.00;;;4.30;;
76848;SDS011;65814;51.134;16.980;2023-07-24T05:14:59;7.00;;;4.20;;
76848;SDS011;65814;51.134;16.980;2023-07-24T05:17:27;8.70;;;4.10;;
76848;SDS011;65814;51.134;16.980;2023-07-24T05:19:55;9.80;;;4.50;;
76848;SDS011;65814;51.134;16.980;2023-07-24T05:22:23;7.40;;;3.70;;
76848;SDS011;65814;51.134;16.980;2023-07-24T05:24:51;7.70;;;4.30;;
76848;SDS011;65814;51.134;16.980;2023-07-24T05:27:19;7.00;;;4.20;;
76848;SDS011;65814;51.134;16.980;2023-07-24T05:29:47;9.30;;;4.20;;
76848;SDS011;65814;51.134;16.980;2023-07-24T05:32:15;8.00;;;4.30;;
76848;SDS011;65814;51.134;16.980;2023-07-24T05:34:43;8.90;;;5.30;;
76848;SDS011;65814;51.134;16.980;2023-07-24T05:37:12;6.30;;;4.00;;
76848;SDS011;65814;51.134;16.980;2023-07-24T05:39:40;9.10;;;4.20;;
76848;SDS011;65814;51.134;16.980;2023-07-24T05:42:08;7.90;;;4.30;;
76848;SDS011;65814;51.134;16.980;2023-07-24T05:44:40;5.40;;;4.10;;
76848;SDS011;65814;51.134;16.980;2023-07-24T05:47:08;10.20;;;4.60;;
76848;SDS011;65814;51.134;16.980;2023-07-24T05:49:35;6.90;;;3.80;;
76848;SDS011;65814;51.134;16.980;2023-07-24T05:52:03;5.60;;;3.50;;
76848;SDS011;65814;51.134;16.980;2023-07-24T05:54:31;7.40;;;4.60;;
76848;SDS011;65814;51.134;16.980;2023-07-24T05:56:59;20.00;;;6.80;;
76848;SDS011;65814;51.134;16.980;2023-07-24T05:59:27;11.40;;;5.20;;
76848;SDS011;65814;51.134;16.980;2023-07-24T06:01:55;7.80;;;3.90;;
76848;SDS011;65814;51.134;16.980;2023-07-24T06:04:23;6.30;;;5.00;;
76848;SDS011;65814;51.134;16.980;2023-07-24T06:06:51;9.00;;;4.70;;
76848;SDS011;65814;51.134;16.980;2023-07-24T06:09:20;7.70;;;4.60;;
76848;SDS011;65814;51.134;16.980;2023-07-24T06:11:48;7.00;;;4.40;;
76848;SDS011;65814;51.134;16.980;2023-07-24T06:14:16;6.30;;;3.80;;
76848;SDS011;65814;51.134;16.980;2023-07-24T06:16:44;8.30;;;4.30;;
76848;SDS011;65814;51.134;16.980;2023-07-24T06:19:12;8.90;;;5.00;;
76848;SDS011;65814;51.134;16.980;2023-07-24T06:21:40;8.40;;;4.90;;
76848;SDS011;65814;51.134;16.980;2023-07-24T06:24:08;7.20;;;4.00;;
76848;SDS011;65814;51.134;16.980;2023-07-24T06:26:40;5.90;;;3.50;;
76848;SDS011;65814;51.134;16.980;2023-07-24T06:29:08;5.80;;;4.10;;
76848;SDS011;65814;51.134;16.980;2023-07-24T06:31:35;6.80;;;4.80;;
76848;SDS011;65814;51.134;16.980;2023-07-24T06:34:05;9.50;;;4.30;;
76848;SDS011;65814;51.134;16.980;2023-07-24T06:36:33;7.50;;;4.00;;
76848;SDS011;65814;51.134;16.980;2023-07-24T06:39:03;6.30;;;3.70;;
76848;SDS011;65814;51.134;16.980;2023-07-24T06:41:31;5.20;;;4.00;;
76848;SDS011;65814;51.134;16.980;2023-07-24T06:43:59;8.30;;;4.00;;
76848;SDS011;65814;51.134;16.980;2023-07-24T06:46:27;8.90;;;4.00;;
76848;SDS011;65814;51.134;16.980;2023-07-24T06:48:55;6.20;;;3.90;;
76848;SDS011;65814;51.134;16.980;2023-07-24T06:51:23;8.60;;;4.10;;
76848;SDS011;65814;51.134;16.980;2023-07-24T06:53:51;7.30;;;4.50;;
76848;SDS011;65814;51.134;16.980;2023-07-24T07:02:00;7.00;;;4.00;;
76848;SDS011;65814;51.134;16.980;2023-07-24T07:04:28;8.60;;;4.90;;
76848;SDS011;65814;51.134;16.980;2023-07-24T07:06:56;7.70;;;3.90;;
76848;SDS011;65814;51.134;16.980;2023-07-24T07:09:24;7.40;;;3.50;;
76848;SDS011;65814;51.134;16.980;2023-07-24T07:11:52;5.90;;;3.70;;
76848;SDS011;65814;51.134;16.980;2023-07-24T07:14:20;8.70;;;4.20;;
76848;SDS011;65814;51.134;16.980;2023-07-24T07:16:48;6.00;;;3.60;;
76848;SDS011;65814;51.134;16.980;2023-07-24T07:19:16;5.50;;;3.70;;
76848;SDS011;65814;51.134;16.980;2023-07-24T07:21:44;7.20;;;4.10;;
76848;SDS011;65814;51.134;16.980;2023-07-24T07:24:12;5.30;;;3.50;;
76848;SDS011;65814;51.134;16.980;2023-07-24T07:26:40;7.00;;;3.80;;
76848;SDS011;65814;51.134;16.980;2023-07-24T07:29:08;4.90;;;3.50;;
76848;SDS011;65814;51.134;16.980;2023-07-24T07:31:36;5.90;;;3.70;;
76848;SDS011;65814;51.134;16.980;2023-07-24T07:34:04;8.00;;;4.50;;
76848;SDS011;65814;51.134;16.980;2023-07-24T07:36:32;6.30;;;4.10;;
76848;SDS011;65814;51.134;16.980;2023-07-24T07:39:00;6.60;;;4.30;;
76848;SDS011;65814;51.134;16.980;2023-07-24T07:41:28;5.90;;;4.70;;
76848;SDS011;65814;51.134;16.980;2023-07-24T07:43:57;6.10;;;4.20;;
76848;SDS011;65814;51.134;16.980;2023-07-24T07:46:25;6.10;;;3.90;;
76848;SDS011;65814;51.134;16.980;2023-07-24T07:48:53;6.40;;;3.80;;
76848;SDS011;65814;51.134;16.980;2023-07-24T07:51:21;6.50;;;4.10;;
76848;SDS011;65814;51.134;16.980;2023-07-24T07:53:51;7.50;;;3.80;;
76848;SDS011;65814;51.134;16.980;2023-07-24T07:56:19;7.90;;;5.00;;
76848;SDS011;65814;51.134;16.980;2023-07-24T07:58:47;5.50;;;3.80;;
76848;SDS011;65814;51.134;16.980;2023-07-24T08:01:16;7.50;;;4.10;;
76848;SDS011;65814;51.134;16.980;2023-07-24T08:03:44;6.20;;;4.40;;
76848;SDS011;65814;51.134;16.980;2023-07-24T08:06:12;7.40;;;4.00;;
76848;SDS011;65814;51.134;16.980;2023-07-24T08:08:40;6.70;;;5.20;;
76848;SDS011;65814;51.134;16.980;2023-07-24T08:11:08;6.30;;;4.40;;
76848;SDS011;65814;51.134;16.980;2023-07-24T08:13:36;7.50;;;4.60;;
76848;SDS011;65814;51.134;16.980;2023-07-24T08:16:11;8.00;;;4.50;;
76848;SDS011;65814;51.134;16.980;2023-07-24T08:18:45;6.60;;;5.00;;
76848;SDS011;65814;51.134;16.980;2023-07-24T08:21:14;5.30;;;3.70;;
76848;SDS011;65814;51.134;16.980;2023-07-24T08:23:43;6.60;;;4.90;;
76848;SDS011;65814;51.134;16.980;2023-07-24T08:26:11;6.30;;;4.40;;
76848;SDS011;65814;51.134;16.980;2023-07-24T08:28:39;7.40;;;4.50;;
76848;SDS011;65814;51.134;16.980;2023-07-24T08:31:09;6.80;;;5.00;;
76848;SDS011;65814;51.134;16.980;2023-07-24T08:33:38;6.30;;;4.50;;
76848;SDS011;65814;51.134;16.980;2023-07-24T08:36:07;6.60;;;4.70;;
76848;SDS011;65814;51.134;16.980;2023-07-24T08:38:35;7.40;;;4.40;;
76848;SDS011;65814;51.134;16.980;2023-07-24T08:41:08;7.50;;;4.40;;
76848;SDS011;65814;51.134;16.980;2023-07-24T08:43:41;6.30;;;4.80;;
76848;SDS011;65814;51.134;16.980;2023-07-24T08:46:10;8.20;;;4.90;;
76848;SDS011;65814;51.134;16.980;2023-07-24T08:48:39;6.30;;;4.60;;
76848;SDS011;65814;51.134;16.980;2023-07-24T08:51:08;9.10;;;5.50;;
76848;SDS011;65814;51.134;16.980;2023-07-24T08:53:41;10.00;;;5.00;;
76848;SDS011;65814;51.134;16.980;2023-07-24T08:56:11;9.40;;;5.00;;
76848;SDS011;65814;51.134;16.980;2023-07-24T08:58:43;7.00;;;4.50;;
76848;SDS011;65814;51.134;16.980;2023-07-24T09:01:11;6.70;;;5.20;;
76848;SDS011;65814;51.134;16.980;2023-07-24T09:03:39;7.20;;;4.70;;
76848;SDS011;65814;51.134;16.980;2023-07-24T09:06:07;8.10;;;5.20;;
76848;SDS011;65814;51.134;16.980;2023-07-24T09:08:42;10.20;;;5.10;;
76848;SDS011;65814;51.134;16.980;2023-07-24T09:11:12;6.00;;;4.70;;
76848;SDS011;65814;51.134;16.980;2023-07-24T09:13:42;6.10;;;3.90;;
76848;SDS011;65814;51.134;16.980;2023-07-24T09:16:26;6.30;;;3.80;;
76848;SDS011;65814;51.134;16.980;2023-07-24T09:21:30;5.20;;;4.20;;
76848;SDS011;65814;51.134;16.980;2023-07-24T09:24:12;5.50;;;3.80;;
76848;SDS011;65814;51.134;16.980;2023-07-24T09:26:48;7.10;;;4.80;;
76848;SDS011;65814;51.134;16.980;2023-07-24T09:29:17;6.90;;;4.10;;
76848;SDS011;65814;51.134;16.980;2023-07-24T09:31:45;5.40;;;3.70;;
76848;SDS011;65814;51.134;16.980;2023-07-24T09:34:14;6.70;;;4.70;;
76848;SDS011;65814;51.134;16.980;2023-07-24T09:36:45;7.00;;;5.10;;
76848;SDS011;65814;51.134;16.980;2023-07-24T09:39:14;7.70;;;4.80;;
76848;SDS011;65814;51.134;16.980;2023-07-24T09:41:42;7.00;;;5.20;;
76848;SDS011;65814;51.134;16.980;2023-07-24T09:44:11;7.70;;;4.50;;
76848;SDS011;65814;51.134;16.980;2023-07-24T09:46:40;8.70;;;4.40;;
76848;SDS011;65814;51.134;16.980;2023-07-24T09:51:39;7.60;;;4.30;;
76848;SDS011;65814;51.134;16.980;2023-07-24T09:54:16;6.60;;;4.30;;
76848;SDS011;65814;51.134;16.980;2023-07-24T09:56:49;7.40;;;4.80;;
76848;SDS011;65814;51.134;16.980;2023-07-24T10:02:04;8.10;;;4.70;;
76848;SDS011;65814;51.134;16.980;2023-07-24T10:04:34;6.90;;;4.70;;
76848;SDS011;65814;51.134;16.980;2023-07-24T10:07:03;7.90;;;4.90;;
76848;SDS011;65814;51.134;16.980;2023-07-24T10:09:32;8.60;;;5.20;;
76848;SDS011;65814;51.134;16.980;2023-07-24T10:12:01;5.90;;;4.60;;
76848;SDS011;65814;51.134;16.980;2023-07-24T10:14:29;7.00;;;5.20;;
76848;SDS011;65814;51.134;16.980;2023-07-24T10:16:58;7.10;;;5.50;;
76848;SDS011;65814;51.134;16.980;2023-07-24T10:19:34;6.50;;;4.20;;
76848;SDS011;65814;51.134;16.980;2023-07-24T10:22:04;7.50;;;5.00;;
76848;SDS011;65814;51.134;16.980;2023-07-24T10:24:33;7.90;;;4.60;;
76848;SDS011;65814;51.134;16.980;2023-07-24T10:27:08;7.80;;;5.40;;
76848;SDS011;65814;51.134;16.980;2023-07-24T10:29:36;7.10;;;5.00;;
76848;SDS011;65814;51.134;16.980;2023-07-24T10:32:16;9.00;;;4.60;;
76848;SDS011;65814;51.134;16.980;2023-07-24T10:34:45;11.20;;;5.80;;
76848;SDS011;65814;51.134;16.980;2023-07-24T10:37:13;8.30;;;5.10;;
76848;SDS011;65814;51.134;16.980;2023-07-24T10:39:41;6.70;;;5.10;;
76848;SDS011;65814;51.134;16.980;2023-07-24T10:42:09;6.60;;;5.00;;
76848;SDS011;65814;51.134;16.980;2023-07-24T10:44:38;7.80;;;4.50;;
76848;SDS011;65814;51.134;16.980;2023-07-24T10:47:06;8.10;;;5.10;;
76848;SDS011;65814;51.134;16.980;2023-07-24T10:49:34;7.90;;;4.90;;
76848;SDS011;65814;51.134;16.980;2023-07-24T10:52:02;7.10;;;4.70;;
76848;SDS011;65814;51.134;16.980;2023-07-24T10:54:31;9.80;;;5.70;;
76848;SDS011;65814;51.134;16.980;2023-07-24T10:57:00;7.30;;;5.20;;
76848;SDS011;65814;51.134;16.980;2023-07-24T10:59:38;6.60;;;4.50;;
76848;SDS011;65814;51.134;16.980;2023-07-24T11:02:07;8.80;;;5.70;;
76848;SDS011;65814;51.134;16.980;2023-07-24T11:04:35;10.20;;;5.90;;
76848;SDS011;65814;51.134;16.980;2023-07-24T11:07:03;8.20;;;5.70;;
76848;SDS011;65814;51.134;16.980;2023-07-24T11:09:35;8.10;;;5.70;;
76848;SDS011;65814;51.134;16.980;2023-07-24T11:12:13;7.80;;;4.50;;
76848;SDS011;65814;51.134;16.980;2023-07-24T11:14:48;8.50;;;6.00;;
76848;SDS011;65814;51.134;16.980;2023-07-24T11:17:17;7.90;;;5.00;;
76848;SDS011;65814;51.134;16.980;2023-07-24T11:19:45;6.60;;;4.70;;
76848;SDS011;65814;51.134;16.980;2023-07-24T11:22:14;8.90;;;5.30;;
76848;SDS011;65814;51.134;16.980;2023-07-24T11:24:46;8.10;;;5.40;;
76848;SDS011;65814;51.134;16.980;2023-07-24T11:27:15;6.60;;;5.00;;
76848;SDS011;65814;51.134;16.980;2023-07-24T11:29:48;7.00;;;4.40;;
76848;SDS011;65814;51.134;16.980;2023-07-24T11:32:17;8.90;;;4.90;;
76848;SDS011;65814;51.134;16.980;2023-07-24T11:34:49;6.40;;;4.30;;
76848;SDS011;65814;51.134;16.980;2023-07-24T11:37:18;8.10;;;6.30;;
76848;SDS011;65814;51.134;16.980;2023-07-24T11:39:56;7.60;;;5.20;;
76848;SDS011;65814;51.134;16.980;2023-07-24T11:42:26;9.70;;;5.40;;
76848;SDS011;65814;51.134;16.980;2023-07-24T11:44:54;7.60;;;5.10;;
76848;SDS011;65814;51.134;16.980;2023-07-24T11:47:22;8.30;;;5.10;;
76848;SDS011;65814;51.134;16.980;2023-07-24T11:49:57;7.00;;;5.00;;
76848;SDS011;65814;51.134;16.980;2023-07-24T11:52:36;7.60;;;4.70;;
76848;SDS011;65814;51.134;16.980;2023-07-24T11:55:15;7.00;;;4.90;;
76848;SDS011;65814;51.134;16.980;2023-07-24T11:57:59;8.40;;;5.20;;
76848;SDS011;65814;51.134;16.980;2023-07-24T12:00:31;7.80;;;5.10;;
76848;SDS011;65814;51.134;16.980;2023-07-24T12:03:04;11.00;;;5.60;;
76848;SDS011;65814;51.134;16.980;2023-07-24T12:05:42;8.60;;;5.60;;
76848;SDS011;65814;51.134;16.980;2023-07-24T12:08:14;8.40;;;6.20;;
76848;SDS011;65814;51.134;16.980;2023-07-24T12:10:43;7.50;;;4.50;;
76848;SDS011;65814;51.134;16.980;2023-07-24T12:13:11;7.80;;;6.00;;
76848;SDS011;65814;51.134;16.980;2023-07-24T12:15:40;8.00;;;5.30;;
76848;SDS011;65814;51.134;16.980;2023-07-24T12:18:08;6.70;;;5.20;;
76848;SDS011;65814;51.134;16.980;2023-07-24T12:20:36;8.30;;;6.00;;
76848;SDS011;65814;51.134;16.980;2023-07-24T12:23:03;9.10;;;5.20;;
76848;SDS011;65814;51.134;16.980;2023-07-24T12:25:32;8.90;;;5.90;;
76848;SDS011;65814;51.134;16.980;2023-07-24T12:28:00;9.10;;;5.70;;
76848;SDS011;65814;51.134;16.980;2023-07-24T12:30:28;8.10;;;5.70;;
76848;SDS011;65814;51.134;16.980;2023-07-24T12:32:56;7.70;;;5.20;;
76848;SDS011;65814;51.134;16.980;2023-07-24T12:35:24;12.30;;;6.30;;
76848;SDS011;65814;51.134;16.980;2023-07-24T12:37:52;9.70;;;7.20;;
76848;SDS011;65814;51.134;16.980;2023-07-24T12:40:20;9.20;;;7.00;;
76848;SDS011;65814;51.134;16.980;2023-07-24T12:42:48;10.80;;;6.90;;
76848;SDS011;65814;51.134;16.980;2023-07-24T12:45:16;9.50;;;6.90;;
76848;SDS011;65814;51.134;16.980;2023-07-24T12:47:44;8.10;;;6.50;;
76848;SDS011;65814;51.134;16.980;2023-07-24T12:50:12;11.00;;;6.70;;
76848;SDS011;65814;51.134;16.980;2023-07-24T12:52:40;9.90;;;6.60;;
76848;SDS011;65814;51.134;16.980;2023-07-24T12:55:08;11.30;;;6.00;;
76848;SDS011;65814;51.134;16.980;2023-07-24T12:57:36;9.90;;;6.70;;
76848;SDS011;65814;51.134;16.980;2023-07-24T13:00:05;10.90;;;7.30;;
76848;SDS011;65814;51.134;16.980;2023-07-24T13:02:33;10.60;;;7.30;;
76848;SDS011;65814;51.134;16.980;2023-07-24T13:05:02;9.70;;;6.40;;
76848;SDS011;65814;51.134;16.980;2023-07-24T13:07:30;12.00;;;7.50;;
76848;SDS011;65814;51.134;16.980;2023-07-24T13:09:58;8.50;;;6.50;;
76848;SDS011;65814;51.134;16.980;2023-07-24T13:12:27;11.40;;;7.50;;
76848;SDS011;65814;51.134;16.980;2023-07-24T13:14:55;9.10;;;6.50;;
76848;SDS011;65814;51.134;16.980;2023-07-24T13:17:22;10.00;;;7.90;;
76848;SDS011;65814;51.134;16.980;2023-07-24T13:19:51;10.10;;;6.90;;
76848;SDS011;65814;51.134;16.980;2023-07-24T13:22:19;9.30;;;7.00;;
76848;SDS011;65814;51.134;16.980;2023-07-24T13:24:46;10.40;;;5.90;;
76848;SDS011;65814;51.134;16.980;2023-07-24T13:27:14;9.30;;;6.30;;
76848;SDS011;65814;51.134;16.980;2023-07-24T13:29:42;11.00;;;6.70;;
76848;SDS011;65814;51.134;16.980;2023-07-24T13:32:11;9.30;;;6.60;;
76848;SDS011;65814;51.134;16.980;2023-07-24T13:34:39;6.90;;;5.20;;
76848;SDS011;65814;51.134;16.980;2023-07-24T13:37:07;10.00;;;5.90;;
76848;SDS011;65814;51.134;16.980;2023-07-24T13:39:35;10.00;;;6.90;;
76848;SDS011;65814;51.134;16.980;2023-07-24T13:42:03;8.30;;;6.10;;
76848;SDS011;65814;51.134;16.980;2023-07-24T13:44:31;14.80;;;7.60;;
76848;SDS011;65814;51.134;16.980;2023-07-24T13:46:59;10.50;;;6.50;;
76848;SDS011;65814;51.134;16.980;2023-07-24T13:49:27;11.20;;;6.80;;
76848;SDS011;65814;51.134;16.980;2023-07-24T13:51:55;11.00;;;7.30;;
76848;SDS011;65814;51.134;16.980;2023-07-24T13:54:23;9.20;;;6.00;;
76848;SDS011;65814;51.134;16.980;2023-07-24T13:56:51;9.50;;;5.80;;
76848;SDS011;65814;51.134;16.980;2023-07-24T13:59:20;10.20;;;6.80;;
76848;SDS011;65814;51.134;16.980;2023-07-24T14:01:49;10.80;;;5.80;;
76848;SDS011;65814;51.134;16.980;2023-07-24T14:04:17;11.50;;;5.50;;
76848;SDS011;65814;51.134;16.980;2023-07-24T14:06:45;8.00;;;6.00;;
76848;SDS011;65814;51.134;16.980;2023-07-24T14:09:13;13.70;;;6.90;;
76848;SDS011;65814;51.134;16.980;2023-07-24T14:11:41;8.50;;;6.10;;
76848;SDS011;65814;51.134;16.980;2023-07-24T14:14:09;8.10;;;5.80;;
76848;SDS011;65814;51.134;16.980;2023-07-24T14:16:39;8.40;;;5.90;;
76848;SDS011;65814;51.134;16.980;2023-07-24T14:19:09;8.40;;;5.70;;
76848;SDS011;65814;51.134;16.980;2023-07-24T14:21:37;10.50;;;6.50;;
76848;SDS011;65814;51.134;16.980;2023-07-24T14:24:05;7.70;;;6.20;;
76848;SDS011;65814;51.134;16.980;2023-07-24T14:26:33;9.90;;;7.00;;
76848;SDS011;65814;51.134;16.980;2023-07-24T14:29:03;9.80;;;6.70;;
76848;SDS011;65814;51.134;16.980;2023-07-24T14:31:31;8.50;;;5.90;;
76848;SDS011;65814;51.134;16.980;2023-07-24T14:34:00;9.50;;;6.40;;
76848;SDS011;65814;51.134;16.980;2023-07-24T14:36:29;10.00;;;5.80;;
76848;SDS011;65814;51.134;16.980;2023-07-24T14:39:02;10.20;;;5.80;;
76848;SDS011;65814;51.134;16.980;2023-07-24T14:41:30;10.50;;;6.10;;
76848;SDS011;65814;51.134;16.980;2023-07-24T14:44:00;8.90;;;6.20;;
76848;SDS011;65814;51.134;16.980;2023-07-24T14:46:28;10.80;;;6.50;;
76848;SDS011;65814;51.134;16.980;2023-07-24T14:48:56;7.70;;;5.90;;
76848;SDS011;65814;51.134;16.980;2023-07-24T14:51:24;11.20;;;7.20;;
76848;SDS011;65814;51.134;16.980;2023-07-24T14:53:52;9.30;;;6.40;;
76848;SDS011;65814;51.134;16.980;2023-07-24T14:56:20;13.20;;;7.50;;
76848;SDS011;65814;51.134;16.980;2023-07-24T14:58:48;8.70;;;6.70;;
76848;SDS011;65814;51.134;16.980;2023-07-24T15:01:16;9.40;;;6.40;;